sensor_id;sensor_type;location;lat;lon;timestamp;temperature;humidity
30244;DHT22;64022;53.652;9.792;2023-04-25T00:01:45;22.50;55.50
30244;DHT22;64022;53.652;9.792;2023-04-25T00:04:10;22.50;55.50
30244;DHT22;64022;53.652;9.792;2023-04-25T00:06:37;22.50;55.40
30244;DHT22;64022;53.652;9.792;2023-04-25T00:09:04;22.50;55.50
30244;DHT22;64022;53.652;9.792;2023-04-25T00:11:33;22.50;55.40
30244;DHT22;64022;53.652;9.792;2023-04-25T00:13:58;22.50;55.40
30244;DHT22;64022;53.652;9.792;2023-04-25T00:16:25;22.50;55.40
30244;DHT22;64022;53.652;9.792;2023-04-25T00:18:50;22.50;55.40
30244;DHT22;64022;53.652;9.792;2023-04-25T00:21:19;22.50;55.40
30244;DHT22;64022;53.652;9.792;2023-04-25T00:23:45;22.50;55.40
30244;DHT22;64022;53.652;9.792;2023-04-25T00:26:11;22.50;55.30
30244;DHT22;64022;53.652;9.792;2023-04-25T00:28:37;22.50;55.30
30244;DHT22;64022;53.652;9.792;2023-04-25T00:31:03;22.50;55.30
30244;DHT22;64022;53.652;9.792;2023-04-25T00:33:29;22.50;55.30
30244;DHT22;64022;53.652;9.792;2023-04-25T00:35:55;22.50;55.30
30244;DHT22;64022;53.652;9.792;2023-04-25T00:38:21;22.50;55.30
30244;DHT22;64022;53.652;9.792;2023-04-25T00:40:46;22.50;55.30
30244;DHT22;64022;53.652;9.792;2023-04-25T00:43:12;22.50;55.30
30244;DHT22;64022;53.652;9.792;2023-04-25T00:45:39;22.50;55.20
30244;DHT22;64022;53.652;9.792;2023-04-25T00:48:04;22.50;55.20
30244;DHT22;64022;53.652;9.792;2023-04-25T00:50:30;22.50;55.00
30244;DHT22;64022;53.652;9.792;2023-04-25T00:52:57;22.50;55.30
30244;DHT22;64022;53.652;9.792;2023-04-25T00:55:23;22.40;55.10
30244;DHT22;64022;53.652;9.792;2023-04-25T00:57:49;22.40;55.30
30244;DHT22;64022;53.652;9.792;2023-04-25T01:00:15;22.40;55.30
30244;DHT22;64022;53.652;9.792;2023-04-25T01:02:41;22.50;55.30
30244;DHT22;64022;53.652;9.792;2023-04-25T01:05:10;22.50;55.30
30244;DHT22;64022;53.652;9.792;2023-04-25T01:07:37;22.50;55.30
30244;DHT22;64022;53.652;9.792;2023-04-25T01:10:03;22.40;55.20
30244;DHT22;64022;53.652;9.792;2023-04-25T01:12:30;22.50;55.20
30244;DHT22;64022;53.652;9.792;2023-04-25T01:14:56;22.50;55.20
30244;DHT22;64022;53.652;9.792;2023-04-25T01:17:22;22.50;55.10
30244;DHT22;64022;53.652;9.792;2023-04-25T01:19:47;22.40;55.00
30244;DHT22;64022;53.652;9.792;2023-04-25T01:22:14;22.50;55.10
30244;DHT22;64022;53.652;9.792;2023-04-25T01:24:40;22.50;55.10
30244;DHT22;64022;53.652;9.792;2023-04-25T01:27:07;22.40;55.00
30244;DHT22;64022;53.652;9.792;2023-04-25T01:29:33;22.40;55.00
30244;DHT22;64022;53.652;9.792;2023-04-25T01:32:00;22.40;55.00
30244;DHT22;64022;53.652;9.792;2023-04-25T01:34:26;22.40;55.00
30244;DHT22;64022;53.652;9.792;2023-04-25T01:36:53;22.50;55.00
30244;DHT22;64022;53.652;9.792;2023-04-25T01:39:19;22.50;55.00
30244;DHT22;64022;53.652;9.792;2023-04-25T01:41:46;22.40;54.90
30244;DHT22;64022;53.652;9.792;2023-04-25T01:44:13;22.40;54.90
30244;DHT22;64022;53.652;9.792;2023-04-25T01:46:38;22.40;54.90
30244;DHT22;64022;53.652;9.792;2023-04-25T01:49:05;22.40;54.90
30244;DHT22;64022;53.652;9.792;2023-04-25T01:51:31;22.40;54.90
30244;DHT22;64022;53.652;9.792;2023-04-25T01:53:57;22.40;54.90
30244;DHT22;64022;53.652;9.792;2023-04-25T01:56:23;22.40;54.90
30244;DHT22;64022;53.652;9.792;2023-04-25T01:58:48;22.40;54.80
30244;DHT22;64022;53.652;9.792;2023-04-25T02:01:14;22.40;54.80
30244;DHT22;64022;53.652;9.792;2023-04-25T02:03:40;22.40;54.80
30244;DHT22;64022;53.652;9.792;2023-04-25T02:06:05;22.40;54.80
30244;DHT22;64022;53.652;9.792;2023-04-25T02:08:31;22.40;54.80
30244;DHT22;64022;53.652;9.792;2023-04-25T02:10:57;22.40;54.80
30244;DHT22;64022;53.652;9.792;2023-04-25T02:13:23;22.40;54.70
30244;DHT22;64022;53.652;9.792;2023-04-25T02:15:48;22.40;54.70
30244;DHT22;64022;53.652;9.792;2023-04-25T02:18:14;22.40;54.70
30244;DHT22;64022;53.652;9.792;2023-04-25T02:20:41;22.40;54.70
30244;DHT22;64022;53.652;9.792;2023-04-25T02:23:07;22.40;54.70
30244;DHT22;64022;53.652;9.792;2023-04-25T02:25:32;22.40;54.70
30244;DHT22;64022;53.652;9.792;2023-04-25T02:27:58;22.40;54.70
30244;DHT22;64022;53.652;9.792;2023-04-25T02:30:23;22.40;54.70
30244;DHT22;64022;53.652;9.792;2023-04-25T02:32:49;22.40;54.70
30244;DHT22;64022;53.652;9.792;2023-04-25T02:35:14;22.40;54.70
30244;DHT22;64022;53.652;9.792;2023-04-25T02:37:40;22.40;54.70
30244;DHT22;64022;53.652;9.792;2023-04-25T02:40:06;22.40;54.60
30244;DHT22;64022;53.652;9.792;2023-04-25T02:42:32;22.40;54.60
30244;DHT22;64022;53.652;9.792;2023-04-25T02:44:58;22.40;54.60
30244;DHT22;64022;53.652;9.792;2023-04-25T02:47:23;22.40;54.60
30244;DHT22;64022;53.652;9.792;2023-04-25T02:49:49;22.40;54.60
30244;DHT22;64022;53.652;9.792;2023-04-25T02:52:15;22.40;54.60
30244;DHT22;64022;53.652;9.792;2023-04-25T02:54:40;22.40;54.60
30244;DHT22;64022;53.652;9.792;2023-04-25T02:57:07;22.40;54.60
30244;DHT22;64022;53.652;9.792;2023-04-25T02:59:32;22.40;54.60
30244;DHT22;64022;53.652;9.792;2023-04-25T03:01:58;22.40;54.60
30244;DHT22;64022;53.652;9.792;2023-04-25T03:04:24;22.40;54.60
30244;DHT22;64022;53.652;9.792;2023-04-25T03:06:53;22.40;54.60
30244;DHT22;64022;53.652;9.792;2023-04-25T03:09:19;22.40;54.60
30244;DHT22;64022;53.652;9.792;2023-04-25T03:11:45;22.40;54.60
30244;DHT22;64022;53.652;9.792;2023-04-25T03:14:11;22.40;54.50
30244;DHT22;64022;53.652;9.792;2023-04-25T03:16:37;22.40;54.50
30244;DHT22;64022;53.652;9.792;2023-04-25T03:19:03;22.40;54.50
30244;DHT22;64022;53.652;9.792;2023-04-25T03:21:30;22.40;54.50
30244;DHT22;64022;53.652;9.792;2023-04-25T03:23:57;22.40;54.50
30244;DHT22;64022;53.652;9.792;2023-04-25T03:26:23;22.40;54.50
30244;DHT22;64022;53.652;9.792;2023-04-25T03:28:48;22.40;54.50
30244;DHT22;64022;53.652;9.792;2023-04-25T03:31:14;22.30;54.40
30244;DHT22;64022;53.652;9.792;2023-04-25T03:33:40;22.40;54.50
30244;DHT22;64022;53.652;9.792;2023-04-25T03:36:05;22.30;54.40
30244;DHT22;64022;53.652;9.792;2023-04-25T03:38:31;22.30;54.40
30244;DHT22;64022;53.652;9.792;2023-04-25T03:40:57;22.30;54.40
30244;DHT22;64022;53.652;9.792;2023-04-25T03:43:22;22.30;54.40
30244;DHT22;64022;53.652;9.792;2023-04-25T03:45:48;22.30;54.40
30244;DHT22;64022;53.652;9.792;2023-04-25T03:48:13;22.30;54.40
30244;DHT22;64022;53.652;9.792;2023-04-25T03:50:39;22.30;54.40
30244;DHT22;64022;53.652;9.792;2023-04-25T03:53:04;22.30;54.40
30244;DHT22;64022;53.652;9.792;2023-04-25T03:55:30;22.30;54.40
30244;DHT22;64022;53.652;9.792;2023-04-25T03:57:57;22.30;54.40
30244;DHT22;64022;53.652;9.792;2023-04-25T04:00:23;22.30;54.40
30244;DHT22;64022;53.652;9.792;2023-04-25T04:02:49;22.30;54.40
30244;DHT22;64022;53.652;9.792;2023-04-25T04:05:14;22.30;54.40
30244;DHT22;64022;53.652;9.792;2023-04-25T04:07:40;22.30;54.40
30244;DHT22;64022;53.652;9.792;2023-04-25T04:10:10;22.30;54.40
30244;DHT22;64022;53.652;9.792;2023-04-25T04:12:37;22.30;54.40
30244;DHT22;64022;53.652;9.792;2023-04-25T04:15:04;22.30;54.40
30244;DHT22;64022;53.652;9.792;2023-04-25T04:17:30;22.30;54.40
30244;DHT22;64022;53.652;9.792;2023-04-25T04:19:55;22.30;54.40
30244;DHT22;64022;53.652;9.792;2023-04-25T04:22:22;22.30;54.40
30244;DHT22;64022;53.652;9.792;2023-04-25T04:24:48;22.30;54.40
30244;DHT22;64022;53.652;9.792;2023-04-25T04:27:15;22.30;54.40
30244;DHT22;64022;53.652;9.792;2023-04-25T04:29:42;22.30;54.40
30244;DHT22;64022;53.652;9.792;2023-04-25T04:32:08;22.30;54.40
30244;DHT22;64022;53.652;9.792;2023-04-25T04:34:34;22.30;54.40
30244;DHT22;64022;53.652;9.792;2023-04-25T04:37:00;22.30;54.40
30244;DHT22;64022;53.652;9.792;2023-04-25T04:39:25;22.30;54.40
30244;DHT22;64022;53.652;9.792;2023-04-25T04:41:51;22.30;54.40
30244;DHT22;64022;53.652;9.792;2023-04-25T04:44:16;22.30;54.40
30244;DHT22;64022;53.652;9.792;2023-04-25T04:46:42;22.30;54.40
30244;DHT22;64022;53.652;9.792;2023-04-25T04:49:10;22.30;54.40
30244;DHT22;64022;53.652;9.792;2023-04-25T04:51:36;22.30;54.40
30244;DHT22;64022;53.652;9.792;2023-04-25T04:54:03;22.30;54.40
30244;DHT22;64022;53.652;9.792;2023-04-25T04:56:29;22.30;54.40
30244;DHT22;64022;53.652;9.792;2023-04-25T04:58:57;22.30;54.40
30244;DHT22;64022;53.652;9.792;2023-04-25T05:01:22;22.30;54.30
30244;DHT22;64022;53.652;9.792;2023-04-25T05:03:48;22.20;54.00
30244;DHT22;64022;53.652;9.792;2023-04-25T05:06:14;22.20;54.40
30244;DHT22;64022;53.652;9.792;2023-04-25T05:08:39;22.20;54.30
30244;DHT22;64022;53.652;9.792;2023-04-25T05:11:05;22.20;54.30
30244;DHT22;64022;53.652;9.792;2023-04-25T05:13:30;22.20;54.30
30244;DHT22;64022;53.652;9.792;2023-04-25T05:15:56;22.20;54.30
30244;DHT22;64022;53.652;9.792;2023-04-25T05:18:21;22.20;54.30
30244;DHT22;64022;53.652;9.792;2023-04-25T05:20:47;22.20;54.30
30244;DHT22;64022;53.652;9.792;2023-04-25T05:23:12;22.20;54.30
30244;DHT22;64022;53.652;9.792;2023-04-25T05:25:38;22.20;54.30
30244;DHT22;64022;53.652;9.792;2023-04-25T05:28:03;22.20;54.30
30244;DHT22;64022;53.652;9.792;2023-04-25T05:30:30;22.20;54.30
30244;DHT22;64022;53.652;9.792;2023-04-25T05:32:55;22.20;54.30
30244;DHT22;64022;53.652;9.792;2023-04-25T05:35:21;22.20;54.30
30244;DHT22;64022;53.652;9.792;2023-04-25T05:37:46;22.20;54.20
30244;DHT22;64022;53.652;9.792;2023-04-25T05:40:12;22.20;54.20
30244;DHT22;64022;53.652;9.792;2023-04-25T05:42:38;22.20;54.20
30244;DHT22;64022;53.652;9.792;2023-04-25T05:45:03;22.30;54.30
30244;DHT22;64022;53.652;9.792;2023-04-25T05:47:29;22.20;54.20
30244;DHT22;64022;53.652;9.792;2023-04-25T05:49:55;22.20;54.20
30244;DHT22;64022;53.652;9.792;2023-04-25T05:52:20;22.20;54.20
30244;DHT22;64022;53.652;9.792;2023-04-25T05:54:46;22.20;54.20
30244;DHT22;64022;53.652;9.792;2023-04-25T05:57:20;22.20;54.20
30244;DHT22;64022;53.652;9.792;2023-04-25T05:59:46;22.20;54.20
30244;DHT22;64022;53.652;9.792;2023-04-25T06:02:11;22.20;54.20
30244;DHT22;64022;53.652;9.792;2023-04-25T06:04:37;22.20;54.20
30244;DHT22;64022;53.652;9.792;2023-04-25T06:07:02;22.20;54.20
30244;DHT22;64022;53.652;9.792;2023-04-25T06:09:28;22.20;54.20
30244;DHT22;64022;53.652;9.792;2023-04-25T06:11:53;22.20;54.20
30244;DHT22;64022;53.652;9.792;2023-04-25T06:14:19;22.20;54.70
30244;DHT22;64022;53.652;9.792;2023-04-25T06:16:44;22.20;54.20
30244;DHT22;64022;53.652;9.792;2023-04-25T06:19:10;22.20;54.20
30244;DHT22;64022;53.652;9.792;2023-04-25T06:21:35;22.20;54.20
30244;DHT22;64022;53.652;9.792;2023-04-25T06:24:01;22.20;54.20
30244;DHT22;64022;53.652;9.792;2023-04-25T06:26:28;22.20;54.20
30244;DHT22;64022;53.652;9.792;2023-04-25T06:28:53;22.20;54.10
30244;DHT22;64022;53.652;9.792;2023-04-25T06:31:19;22.20;54.10
30244;DHT22;64022;53.652;9.792;2023-04-25T06:33:44;22.20;54.10
30244;DHT22;64022;53.652;9.792;2023-04-25T06:36:10;22.20;54.10
30244;DHT22;64022;53.652;9.792;2023-04-25T06:38:35;22.20;54.10
30244;DHT22;64022;53.652;9.792;2023-04-25T06:41:01;22.20;54.10
30244;DHT22;64022;53.652;9.792;2023-04-25T06:43:26;22.20;54.10
30244;DHT22;64022;53.652;9.792;2023-04-25T06:45:52;22.20;54.10
30244;DHT22;64022;53.652;9.792;2023-04-25T06:48:18;22.20;54.10
30244;DHT22;64022;53.652;9.792;2023-04-25T06:50:43;22.20;54.00
30244;DHT22;64022;53.652;9.792;2023-04-25T06:53:09;22.20;54.00
30244;DHT22;64022;53.652;9.792;2023-04-25T06:55:35;22.20;50.70
30244;DHT22;64022;53.652;9.792;2023-04-25T06:58:00;22.00;48.80
30244;DHT22;64022;53.652;9.792;2023-04-25T07:00:26;21.80;46.40
30244;DHT22;64022;53.652;9.792;2023-04-25T07:02:51;21.40;45.80
30244;DHT22;64022;53.652;9.792;2023-04-25T07:05:17;21.20;44.40
30244;DHT22;64022;53.652;9.792;2023-04-25T07:07:42;20.90;43.90
30244;DHT22;64022;53.652;9.792;2023-04-25T07:10:08;20.70;44.00
30244;DHT22;64022;53.652;9.792;2023-04-25T07:12:34;20.70;45.20
30244;DHT22;64022;53.652;9.792;2023-04-25T07:14:59;20.70;45.90
30244;DHT22;64022;53.652;9.792;2023-04-25T07:17:31;20.70;46.40
30244;DHT22;64022;53.652;9.792;2023-04-25T07:19:56;20.80;46.80
30244;DHT22;64022;53.652;9.792;2023-04-25T07:22:22;20.90;47.10
30244;DHT22;64022;53.652;9.792;2023-04-25T07:24:47;21.00;47.30
30244;DHT22;64022;53.652;9.792;2023-04-25T07:27:14;21.00;47.50
30244;DHT22;64022;53.652;9.792;2023-04-25T07:29:39;21.00;47.60
30244;DHT22;64022;53.652;9.792;2023-04-25T07:32:05;21.10;47.80
30244;DHT22;64022;53.652;9.792;2023-04-25T07:34:30;21.20;47.90
30244;DHT22;64022;53.652;9.792;2023-04-25T07:36:56;21.20;48.00
30244;DHT22;64022;53.652;9.792;2023-04-25T07:39:21;21.20;48.10
30244;DHT22;64022;53.652;9.792;2023-04-25T07:41:48;21.20;48.20
30244;DHT22;64022;53.652;9.792;2023-04-25T07:44:13;21.30;48.30
30244;DHT22;64022;53.652;9.792;2023-04-25T07:46:39;21.40;48.40
30244;DHT22;64022;53.652;9.792;2023-04-25T07:49:05;21.40;48.40
30244;DHT22;64022;53.652;9.792;2023-04-25T07:51:30;21.40;48.50
30244;DHT22;64022;53.652;9.792;2023-04-25T07:53:56;21.40;48.60
30244;DHT22;64022;53.652;9.792;2023-04-25T07:56:22;21.50;48.60
30244;DHT22;64022;53.652;9.792;2023-04-25T07:58:47;21.50;48.70
30244;DHT22;64022;53.652;9.792;2023-04-25T08:01:13;21.50;48.80
30244;DHT22;64022;53.652;9.792;2023-04-25T08:03:38;21.60;48.90
30244;DHT22;64022;53.652;9.792;2023-04-25T08:06:04;21.60;49.00
30244;DHT22;64022;53.652;9.792;2023-04-25T08:08:30;21.50;49.10
30244;DHT22;64022;53.652;9.792;2023-04-25T08:10:55;21.60;49.30
30244;DHT22;64022;53.652;9.792;2023-04-25T08:13:21;21.60;49.40
30244;DHT22;64022;53.652;9.792;2023-04-25T08:15:46;21.70;49.50
30244;DHT22;64022;53.652;9.792;2023-04-25T08:18:12;21.70;49.60
30244;DHT22;64022;53.652;9.792;2023-04-25T08:20:38;21.70;49.70
30244;DHT22;64022;53.652;9.792;2023-04-25T08:23:03;21.70;49.80
30244;DHT22;64022;53.652;9.792;2023-04-25T08:25:28;21.70;49.90
30244;DHT22;64022;53.652;9.792;2023-04-25T08:27:54;21.70;49.90
30244;DHT22;64022;53.652;9.792;2023-04-25T08:30:20;21.70;50.00
30244;DHT22;64022;53.652;9.792;2023-04-25T08:32:46;21.70;50.10
30244;DHT22;64022;53.652;9.792;2023-04-25T08:35:11;21.80;50.20
30244;DHT22;64022;53.652;9.792;2023-04-25T08:37:37;21.80;50.30
30244;DHT22;64022;53.652;9.792;2023-04-25T08:40:04;21.80;50.40
30244;DHT22;64022;53.652;9.792;2023-04-25T08:42:33;21.80;50.40
30244;DHT22;64022;53.652;9.792;2023-04-25T08:45:01;21.80;50.50
30244;DHT22;64022;53.652;9.792;2023-04-25T08:47:27;21.80;50.60
30244;DHT22;64022;53.652;9.792;2023-04-25T08:49:55;21.80;50.60
30244;DHT22;64022;53.652;9.792;2023-04-25T08:52:28;21.90;50.70
30244;DHT22;64022;53.652;9.792;2023-04-25T08:54:55;21.90;50.70
30244;DHT22;64022;53.652;9.792;2023-04-25T08:57:22;21.90;50.80
30244;DHT22;64022;53.652;9.792;2023-04-25T08:59:49;21.90;50.90
30244;DHT22;64022;53.652;9.792;2023-04-25T09:02:14;21.90;50.90
30244;DHT22;64022;53.652;9.792;2023-04-25T09:04:43;21.90;50.90
30244;DHT22;64022;53.652;9.792;2023-04-25T09:07:09;21.90;51.00
30244;DHT22;64022;53.652;9.792;2023-04-25T09:09:34;21.90;51.00
30244;DHT22;64022;53.652;9.792;2023-04-25T09:12:01;21.90;51.00
30244;DHT22;64022;53.652;9.792;2023-04-25T09:14:27;22.00;51.10
30244;DHT22;64022;53.652;9.792;2023-04-25T09:19:29;22.00;51.20
30244;DHT22;64022;53.652;9.792;2023-04-25T09:22:00;22.00;51.30
30244;DHT22;64022;53.652;9.792;2023-04-25T09:24:43;22.00;51.30
30244;DHT22;64022;53.652;9.792;2023-04-25T09:27:11;21.90;51.10
30244;DHT22;64022;53.652;9.792;2023-04-25T09:29:38;22.00;51.30
30244;DHT22;64022;53.652;9.792;2023-04-25T09:32:18;21.90;51.30
30244;DHT22;64022;53.652;9.792;2023-04-25T09:34:48;22.00;51.30
30244;DHT22;64022;53.652;9.792;2023-04-25T09:37:29;22.00;51.40
30244;DHT22;64022;53.652;9.792;2023-04-25T09:39:57;22.00;51.30
30244;DHT22;64022;53.652;9.792;2023-04-25T09:42:30;22.00;51.50
30244;DHT22;64022;53.652;9.792;2023-04-25T09:44:58;22.00;51.40
30244;DHT22;64022;53.652;9.792;2023-04-25T09:47:25;22.00;51.50
30244;DHT22;64022;53.652;9.792;2023-04-25T09:49:51;22.10;51.50
30244;DHT22;64022;53.652;9.792;2023-04-25T09:52:21;22.00;51.50
30244;DHT22;64022;53.652;9.792;2023-04-25T09:54:48;22.00;51.50
30244;DHT22;64022;53.652;9.792;2023-04-25T09:57:15;22.00;51.50
30244;DHT22;64022;53.652;9.792;2023-04-25T09:59:52;22.10;51.60
30244;DHT22;64022;53.652;9.792;2023-04-25T10:02:23;22.10;51.50
30244;DHT22;64022;53.652;9.792;2023-04-25T10:04:53;22.10;51.60
30244;DHT22;64022;53.652;9.792;2023-04-25T10:07:29;22.10;51.60
30244;DHT22;64022;53.652;9.792;2023-04-25T10:09:58;22.10;51.60
30244;DHT22;64022;53.652;9.792;2023-04-25T10:12:28;22.10;51.60
30244;DHT22;64022;53.652;9.792;2023-04-25T10:14:54;22.10;51.60
30244;DHT22;64022;53.652;9.792;2023-04-25T10:17:21;22.10;51.60
30244;DHT22;64022;53.652;9.792;2023-04-25T10:19:47;22.10;51.60
30244;DHT22;64022;53.652;9.792;2023-04-25T10:24:50;22.10;51.60
30244;DHT22;64022;53.652;9.792;2023-04-25T10:27:16;22.10;51.60
30244;DHT22;64022;53.652;9.792;2023-04-25T10:29:43;22.10;51.60
30244;DHT22;64022;53.652;9.792;2023-04-25T10:32:09;22.10;51.60
30244;DHT22;64022;53.652;9.792;2023-04-25T10:34:43;22.10;51.70
30244;DHT22;64022;53.652;9.792;2023-04-25T10:37:09;22.10;51.60
30244;DHT22;64022;53.652;9.792;2023-04-25T10:39:41;22.10;51.70
30244;DHT22;64022;53.652;9.792;2023-04-25T10:42:07;22.10;51.70
30244;DHT22;64022;53.652;9.792;2023-04-25T10:44:37;22.10;51.70
30244;DHT22;64022;53.652;9.792;2023-04-25T10:47:06;22.10;51.60
30244;DHT22;64022;53.652;9.792;2023-04-25T10:49:42;22.10;52.20
30244;DHT22;64022;53.652;9.792;2023-04-25T10:52:25;22.10;51.60
30244;DHT22;64022;53.652;9.792;2023-04-25T10:54:53;22.10;51.60
30244;DHT22;64022;53.652;9.792;2023-04-25T10:57:38;22.10;51.70
30244;DHT22;64022;53.652;9.792;2023-04-25T11:00:11;22.10;51.60
30244;DHT22;64022;53.652;9.792;2023-04-25T11:02:52;22.10;51.60
30244;DHT22;64022;53.652;9.792;2023-04-25T11:05:22;22.10;51.60
30244;DHT22;64022;53.652;9.792;2023-04-25T11:07:51;22.10;51.60
30244;DHT22;64022;53.652;9.792;2023-04-25T11:10:17;22.20;51.70
30244;DHT22;64022;53.652;9.792;2023-04-25T11:12:45;22.10;51.60
30244;DHT22;64022;53.652;9.792;2023-04-25T11:15:10;22.20;51.70
30244;DHT22;64022;53.652;9.792;2023-04-25T11:17:36;22.20;51.70
30244;DHT22;64022;53.652;9.792;2023-04-25T11:20:02;22.20;51.70
30244;DHT22;64022;53.652;9.792;2023-04-25T11:22:31;22.20;51.70
30244;DHT22;64022;53.652;9.792;2023-04-25T11:24:57;22.10;51.60
30244;DHT22;64022;53.652;9.792;2023-04-25T11:27:22;22.20;51.70
30244;DHT22;64022;53.652;9.792;2023-04-25T11:29:50;22.20;51.60
30244;DHT22;64022;53.652;9.792;2023-04-25T11:32:18;22.10;51.60
30244;DHT22;64022;53.652;9.792;2023-04-25T11:34:44;22.20;51.60
30244;DHT22;64022;53.652;9.792;2023-04-25T11:37:13;22.20;51.60
30244;DHT22;64022;53.652;9.792;2023-04-25T11:39:43;22.20;51.60
30244;DHT22;64022;53.652;9.792;2023-04-25T11:42:10;22.20;51.60
30244;DHT22;64022;53.652;9.792;2023-04-25T11:44:38;22.20;51.60
30244;DHT22;64022;53.652;9.792;2023-04-25T11:47:03;22.20;51.60
30244;DHT22;64022;53.652;9.792;2023-04-25T11:49:32;22.20;51.60
30244;DHT22;64022;53.652;9.792;2023-04-25T11:51:58;22.20;51.60
30244;DHT22;64022;53.652;9.792;2023-04-25T11:54:23;22.20;51.60
30244;DHT22;64022;53.652;9.792;2023-04-25T11:56:49;22.20;51.60
30244;DHT22;64022;53.652;9.792;2023-04-25T11:59:14;22.20;51.60
30244;DHT22;64022;53.652;9.792;2023-04-25T12:01:48;22.20;51.50
30244;DHT22;64022;53.652;9.792;2023-04-25T12:04:15;22.20;51.50
30244;DHT22;64022;53.652;9.792;2023-04-25T12:06:42;22.20;51.50
30244;DHT22;64022;53.652;9.792;2023-04-25T12:09:10;22.20;51.50
30244;DHT22;64022;53.652;9.792;2023-04-25T12:11:52;22.20;51.50
30244;DHT22;64022;53.652;9.792;2023-04-25T12:16:49;22.20;51.50
30244;DHT22;64022;53.652;9.792;2023-04-25T12:19:17;22.20;51.50
30244;DHT22;64022;53.652;9.792;2023-04-25T12:21:43;22.20;51.50
30244;DHT22;64022;53.652;9.792;2023-04-25T12:24:27;22.20;51.30
30244;DHT22;64022;53.652;9.792;2023-04-25T12:27:01;22.20;51.50
30244;DHT22;64022;53.652;9.792;2023-04-25T12:29:28;22.20;51.60
30244;DHT22;64022;53.652;9.792;2023-04-25T12:31:55;22.20;51.50
30244;DHT22;64022;53.652;9.792;2023-04-25T12:34:21;22.20;51.50
30244;DHT22;64022;53.652;9.792;2023-04-25T12:36:47;22.10;51.20
30244;DHT22;64022;53.652;9.792;2023-04-25T12:39:23;22.20;51.60
30244;DHT22;64022;53.652;9.792;2023-04-25T12:41:50;22.20;51.50
30244;DHT22;64022;53.652;9.792;2023-04-25T12:44:17;22.20;51.50
30244;DHT22;64022;53.652;9.792;2023-04-25T12:46:43;22.20;51.50
30244;DHT22;64022;53.652;9.792;2023-04-25T12:49:08;22.20;51.50
30244;DHT22;64022;53.652;9.792;2023-04-25T12:51:37;22.20;51.40
30244;DHT22;64022;53.652;9.792;2023-04-25T12:54:04;22.20;51.40
30244;DHT22;64022;53.652;9.792;2023-04-25T12:56:30;22.20;51.40
30244;DHT22;64022;53.652;9.792;2023-04-25T12:58:56;22.20;51.40
30244;DHT22;64022;53.652;9.792;2023-04-25T13:01:22;22.20;51.40
30244;DHT22;64022;53.652;9.792;2023-04-25T13:03:48;22.20;51.40
30244;DHT22;64022;53.652;9.792;2023-04-25T13:06:14;22.20;51.40
30244;DHT22;64022;53.652;9.792;2023-04-25T13:08:40;22.20;51.30
30244;DHT22;64022;53.652;9.792;2023-04-25T13:11:07;22.20;51.30
30244;DHT22;64022;53.652;9.792;2023-04-25T13:13:33;22.20;51.30
30244;DHT22;64022;53.652;9.792;2023-04-25T13:16:04;22.20;51.30
30244;DHT22;64022;53.652;9.792;2023-04-25T13:18:30;22.20;51.30
30244;DHT22;64022;53.652;9.792;2023-04-25T13:20:56;22.20;51.30
30244;DHT22;64022;53.652;9.792;2023-04-25T13:23:23;22.20;51.20
30244;DHT22;64022;53.652;9.792;2023-04-25T13:25:49;22.20;51.20
30244;DHT22;64022;53.652;9.792;2023-04-25T13:28:14;22.20;51.20
30244;DHT22;64022;53.652;9.792;2023-04-25T13:30:40;22.20;51.20
30244;DHT22;64022;53.652;9.792;2023-04-25T13:33:06;22.20;51.20
30244;DHT22;64022;53.652;9.792;2023-04-25T13:35:33;22.20;51.20
30244;DHT22;64022;53.652;9.792;2023-04-25T13:37:59;22.20;51.70
30244;DHT22;64022;53.652;9.792;2023-04-25T13:40:25;22.20;51.10
30244;DHT22;64022;53.652;9.792;2023-04-25T13:42:50;22.20;51.10
30244;DHT22;64022;53.652;9.792;2023-04-25T13:45:16;22.20;51.10
30244;DHT22;64022;53.652;9.792;2023-04-25T13:47:42;22.20;51.10
30244;DHT22;64022;53.652;9.792;2023-04-25T13:50:08;22.30;51.20
30244;DHT22;64022;53.652;9.792;2023-04-25T13:52:33;22.30;51.20
30244;DHT22;64022;53.652;9.792;2023-04-25T13:54:59;22.20;51.10
30244;DHT22;64022;53.652;9.792;2023-04-25T13:57:25;22.30;51.10
30244;DHT22;64022;53.652;9.792;2023-04-25T13:59:51;22.30;51.10
30244;DHT22;64022;53.652;9.792;2023-04-25T14:02:17;22.30;51.10
30244;DHT22;64022;53.652;9.792;2023-04-25T14:04:43;22.30;51.10
30244;DHT22;64022;53.652;9.792;2023-04-25T14:07:08;22.30;51.10
30244;DHT22;64022;53.652;9.792;2023-04-25T14:09:36;22.30;51.10
30244;DHT22;64022;53.652;9.792;2023-04-25T14:12:01;22.30;51.00
30244;DHT22;64022;53.652;9.792;2023-04-25T14:14:27;22.30;51.00
30244;DHT22;64022;53.652;9.792;2023-04-25T14:16:53;22.30;51.00
30244;DHT22;64022;53.652;9.792;2023-04-25T14:19:20;22.30;51.00
30244;DHT22;64022;53.652;9.792;2023-04-25T14:21:45;22.30;51.00
30244;DHT22;64022;53.652;9.792;2023-04-25T14:24:13;22.30;51.00
30244;DHT22;64022;53.652;9.792;2023-04-25T14:26:39;22.30;50.90
30244;DHT22;64022;53.652;9.792;2023-04-25T14:29:06;22.30;50.90
30244;DHT22;64022;53.652;9.792;2023-04-25T14:31:33;22.30;50.80
30244;DHT22;64022;53.652;9.792;2023-04-25T14:33:58;22.20;51.00
30244;DHT22;64022;53.652;9.792;2023-04-25T14:36:24;22.20;50.90
30244;DHT22;64022;53.652;9.792;2023-04-25T14:38:51;22.30;50.90
30244;DHT22;64022;53.652;9.792;2023-04-25T14:41:18;22.30;50.90
30244;DHT22;64022;53.652;9.792;2023-04-25T14:43:43;22.30;50.90
30244;DHT22;64022;53.652;9.792;2023-04-25T14:46:10;22.30;50.90
30244;DHT22;64022;53.652;9.792;2023-04-25T14:48:36;22.30;51.40
30244;DHT22;64022;53.652;9.792;2023-04-25T14:51:01;22.30;50.80
30244;DHT22;64022;53.652;9.792;2023-04-25T14:53:27;22.30;50.80
30244;DHT22;64022;53.652;9.792;2023-04-25T14:55:53;22.30;50.80
30244;DHT22;64022;53.652;9.792;2023-04-25T14:58:19;22.30;50.80
30244;DHT22;64022;53.652;9.792;2023-04-25T15:00:45;22.30;50.80
30244;DHT22;64022;53.652;9.792;2023-04-25T15:03:11;22.30;50.80
30244;DHT22;64022;53.652;9.792;2023-04-25T15:05:38;22.30;50.70
30244;DHT22;64022;53.652;9.792;2023-04-25T15:08:04;22.30;50.60
30244;DHT22;64022;53.652;9.792;2023-04-25T15:10:30;22.30;50.80
30244;DHT22;64022;53.652;9.792;2023-04-25T15:12:55;22.30;50.80
30244;DHT22;64022;53.652;9.792;2023-04-25T15:15:21;22.30;50.80
30244;DHT22;64022;53.652;9.792;2023-04-25T15:17:47;22.30;51.30
30244;DHT22;64022;53.652;9.792;2023-04-25T15:20:13;22.30;50.80
30244;DHT22;64022;53.652;9.792;2023-04-25T15:22:40;22.30;50.80
30244;DHT22;64022;53.652;9.792;2023-04-25T15:25:07;22.30;51.30
30244;DHT22;64022;53.652;9.792;2023-04-25T15:27:33;22.30;50.80
30244;DHT22;64022;53.652;9.792;2023-04-25T15:30:06;22.30;50.80
30244;DHT22;64022;53.652;9.792;2023-04-25T15:32:32;22.40;50.80
30244;DHT22;64022;53.652;9.792;2023-04-25T15:34:58;22.30;50.80